Time;durP1;ratioP1;P1;durP2;ratioP2;P2;SDS_P1;SDS_P2;PMS_P1;PMS_P2;Temp;Humidity;BMP_temperature;BMP_pressure;BME280_temperature;BME280_humidity;BME280_pressure;Samples;Min_cycle;Max_cycle;Signal;HPM_P1;HPM_P2
2022/11/21 00:01:54;;;;;;;0.50;0.50;;;;;;;-1.11;82.55;99265.44;5065286;28;20031;-74
2022/11/21 00:04:19;;;;;;;0.60;0.60;;;;;;;-1.08;82.60;99270.59;5065217;28;20123;-74
2022/11/21 00:06:45;;;;;;;0.70;0.70;;;;;;;-1.12;82.83;99268.81;5065026;28;20025;-74
2022/11/21 00:09:10;;;;;;;0.60;0.60;;;;;;;-1.13;83.07;99273.03;5063446;28;20013;-74
2022/11/21 00:11:36;;;;;;;0.70;0.70;;;;;;;-1.09;82.96;99263.78;5064783;28;20028;-75
2022/11/21 00:14:01;;;;;;;0.63;0.63;;;;;;;-1.10;83.01;99274.78;5065559;28;20132;-74
2022/11/21 00:16:26;;;;;;;0.70;0.70;;;;;;;-1.11;83.16;99265.44;5065082;28;20037;-75
2022/11/21 00:18:52;;;;;;;0.65;0.65;;;;;;;-1.14;83.10;99263.69;5064507;28;20021;-75
2022/11/21 00:21:20;;;;;;;0.65;0.65;;;;;;;-1.17;83.18;99261.09;5065170;28;20071;-74
2022/11/21 00:23:46;;;;;;;0.65;0.65;;;;;;;-1.19;83.18;99254.22;5063688;28;20021;-75
2022/11/21 00:26:13;;;;;;;0.60;0.60;;;;;;;-1.18;83.38;99245.78;5065011;28;20025;-75
2022/11/21 00:28:38;;;;;;;0.57;0.57;;;;;;;-1.20;83.27;99243.19;5063367;28;20401;-75
2022/11/21 00:31:04;;;;;;;0.60;0.60;;;;;;;-1.25;83.39;99229.50;5065161;28;20040;-74
2022/11/21 00:33:30;;;;;;;0.63;0.63;;;;;;;-1.28;83.66;99237.91;5064967;28;20029;-74
2022/11/21 00:35:56;;;;;;;0.63;0.63;;;;;;;-1.28;83.70;99229.44;5063831;28;20025;-74
2022/11/21 00:38:23;;;;;;;0.60;0.60;;;;;;;-1.32;83.66;99223.41;5063827;28;20036;-76
2022/11/21 00:40:49;;;;;;;0.60;0.60;;;;;;;-1.22;83.79;99218.50;5064705;28;20028;-74
2022/11/21 00:43:14;;;;;;;0.60;0.60;;;;;;;-1.19;83.69;99226.19;5065001;28;20025;-75
2022/11/21 00:45:40;;;;;;;0.60;0.60;;;;;;;-1.19;83.50;99224.53;5068000;28;20025;-73
2022/11/21 00:48:05;;;;;;;0.60;0.60;;;;;;;-1.24;83.78;99226.13;5067705;28;20044;-74
2022/11/21 00:50:31;;;;;;;0.70;0.70;;;;;;;-1.26;83.87;99210.81;5068961;28;20041;-74
2022/11/21 00:52:57;;;;;;;0.60;0.60;;;;;;;-1.26;83.80;99220.13;5069029;28;20025;-74
2022/11/21 00:55:25;;;;;;;0.60;0.60;;;;;;;-1.23;83.82;99212.53;5069086;28;20021;-74
2022/11/21 00:57:51;;;;;;;0.65;0.65;;;;;;;-1.26;83.96;99198.06;5067497;28;20120;-74
2022/11/21 01:00:16;;;;;;;0.70;0.70;;;;;;;-1.28;83.91;99186.16;5069048;28;20049;-74
2022/11/21 01:02:42;;;;;;;0.60;0.60;;;;;;;-1.26;83.95;99205.72;5068309;28;20033;-74
2022/11/21 01:05:08;;;;;;;0.55;0.55;;;;;;;-1.29;84.03;99189.50;5070008;28;20052;-74
2022/11/21 01:07:33;;;;;;;0.57;0.57;;;;;;;-1.23;84.04;99198.97;5070382;28;20032;-74
2022/11/21 01:09:59;;;;;;;0.60;0.60;;;;;;;-1.30;84.13;99186.13;5069135;28;20017;-74
2022/11/21 01:12:24;;;;;;;0.50;0.50;;;;;;;-1.22;83.96;99170.09;5069677;28;20126;-74
2022/11/21 01:14:49;;;;;;;0.70;0.70;;;;;;;-1.28;83.91;99179.34;5068675;28;20048;-75
2022/11/21 01:17:15;;;;;;;0.70;0.70;;;;;;;-1.28;84.23;99181.06;5068212;28;20108;-74
2022/11/21 01:19:41;;;;;;;0.70;0.70;;;;;;;-1.28;84.16;99174.25;5067976;28;20083;-75
2022/11/21 01:22:06;;;;;;;0.60;0.60;;;;;;;-1.25;84.22;99178.56;5068279;28;20017;-74
2022/11/21 01:24:31;;;;;;;0.55;0.55;;;;;;;-1.34;84.27;99165.66;5068039;28;20020;-74
2022/11/21 01:26:57;;;;;;;0.65;0.65;;;;;;;-1.28;84.17;99170.88;5068644;28;20538;-74
2022/11/21 01:29:22;;;;;;;0.68;0.68;;;;;;;-1.29;84.19;99172.53;5066862;28;20024;-75
2022/11/21 01:31:48;;;;;;;0.70;0.70;;;;;;;-1.28;84.38;99173.41;5066422;28;20082;-74
2022/11/21 01:34:14;;;;;;;0.60;0.60;;;;;;;-1.23;84.12;99163.31;5067857;28;20082;-74
2022/11/21 01:36:40;;;;;;;0.70;0.70;;;;;;;-1.31;84.20;99171.63;5066609;28;20397;-74
2022/11/21 01:39:06;;;;;;;0.60;0.60;;;;;;;-1.30;84.17;99162.31;5067844;28;20509;-74
2022/11/21 01:41:38;;;;;;;0.60;0.60;;;;;;;-1.33;84.07;99165.69;5067783;28;20021;-75
2022/11/21 01:44:13;;;;;;;0.70;0.70;;;;;;;-1.37;84.25;99154.56;5067868;28;20111;-75
2022/11/21 01:46:39;;;;;;;0.60;0.60;;;;;;;-1.34;84.06;99158.84;5067959;28;20040;-75
2022/11/21 01:49:31;;;;;;;0.50;0.50;;;;;;;-1.32;84.07;99144.47;5067704;28;20020;-74
2022/11/21 01:52:02;;;;;;;0.60;0.60;;;;;;;-1.35;83.96;99164.78;5067827;28;20028;-74
2022/11/21 01:54:53;;;;;;;0.60;0.60;;;;;;;-1.34;84.13;99153.75;5066474;28;20029;-74
2022/11/21 01:57:31;;;;;;;0.60;0.60;;;;;;;-1.31;84.06;99147.88;5064425;28;20496;-73
2022/11/21 02:00:16;;;;;;;0.65;0.65;;;;;;;-1.32;84.02;99143.59;5066828;28;20059;-73
2022/11/21 02:02:47;;;;;;;0.60;0.60;;;;;;;-1.35;84.06;99136.78;5067474;28;20107;-74
2022/11/21 02:05:19;;;;;;;0.65;0.65;;;;;;;-1.29;84.01;99141.97;5065773;28;20032;-76
2022/11/21 02:07:47;;;;;;;0.60;0.60;;;;;;;-1.28;84.01;99138.59;5066074;28;20036;-75
2022/11/21 02:10:14;;;;;;;0.60;0.60;;;;;;;-1.25;83.96;99145.47;5067275;28;20407;-74
2022/11/21 02:12:45;;;;;;;0.68;0.68;;;;;;;-1.32;83.82;99131.75;5066904;28;20016;-75
2022/11/21 02:15:11;;;;;;;0.60;0.60;;;;;;;-1.26;84.00;99138.63;5065851;28;20031;-75
2022/11/21 02:17:36;;;;;;;0.70;0.70;;;;;;;-1.29;83.86;99139.44;5067245;28;20088;-74
2022/11/21 02:20:05;;;;;;;0.60;0.60;;;;;;;-1.22;83.92;99139.56;5066473;28;20034;-74
2022/11/21 02:22:44;;;;;;;0.50;0.50;;;;;;;-1.23;83.77;99135.28;5067128;28;20032;-74
2022/11/21 02:25:17;;;;;;;0.70;0.70;;;;;;;-1.25;83.67;99127.63;5066887;28;20029;-73
2022/11/21 02:27:42;;;;;;;0.60;0.60;;;;;;;-1.20;83.86;99145.53;5066820;28;20024;-73
2022/11/21 02:30:09;;;;;;;0.63;0.63;;;;;;;-1.24;83.70;99136.97;5066788;28;20031;-74
2022/11/21 02:32:39;;;;;;;0.60;0.60;;;;;;;-1.20;83.61;99135.34;5066871;28;20025;-73
2022/11/21 02:35:04;;;;;;;0.60;0.60;;;;;;;-1.21;83.74;99133.63;5048724;28;20021;-75
2022/11/21 02:37:32;;;;;;;0.60;0.60;;;;;;;-1.22;83.63;99134.47;5066817;28;20046;-73
2022/11/21 02:40:02;;;;;;;0.60;0.60;;;;;;;-1.25;83.78;99127.63;5066803;28;20164;-74
2022/11/21 02:42:32;;;;;;;0.60;0.60;;;;;;;-1.23;83.88;99120.00;5066998;28;20388;-74
2022/11/21 02:45:06;;;;;;;0.60;0.60;;;;;;;-1.24;83.90;99126.78;5065521;28;20025;-74
2022/11/21 02:47:34;;;;;;;0.60;0.60;;;;;;;-1.26;83.65;99121.66;5065344;28;20028;-75
2022/11/21 02:50:27;;;;;;;0.60;0.60;;;;;;;-1.28;84.03;99118.22;5066581;28;20024;-75
2022/11/21 02:52:54;;;;;;;0.70;0.70;;;;;;;-1.32;84.20;99106.28;5060218;28;20101;-75
2022/11/21 02:55:19;;;;;;;0.70;0.70;;;;;;;-1.26;84.11;99114.03;5066243;28;20032;-74
2022/11/21 02:57:45;;;;;;;0.60;0.60;;;;;;;-1.32;84.10;99100.31;5064627;28;20025;-74
2022/11/21 03:00:10;;;;;;;0.60;0.60;;;;;;;-1.26;84.02;99103.84;5064731;28;20033;-73
2022/11/21 03:02:36;;;;;;;0.60;0.60;;;;;;;-1.28;84.26;99105.50;5066367;28;20021;-73
2022/11/21 03:05:03;;;;;;;0.57;0.57;;;;;;;-1.30;84.27;99098.66;5065836;28;20024;-74
2022/11/21 03:07:29;;;;;;;0.60;0.60;;;;;;;-1.32;84.14;99092.69;5065176;28;20032;-75
2022/11/21 03:09:54;;;;;;;0.60;0.60;;;;;;;-1.31;84.23;99097.78;5066206;28;20017;-75
2022/11/21 03:12:20;;;;;;;0.68;0.68;;;;;;;-1.31;84.37;99100.34;5066395;28;20025;-75
2022/11/21 03:14:45;;;;;;;0.60;0.60;;;;;;;-1.27;84.14;99096.16;5066587;28;20442;-75
2022/11/21 03:17:10;;;;;;;0.60;0.60;;;;;;;-1.28;84.29;99097.84;5066271;28;20032;-75
2022/11/21 03:19:36;;;;;;;0.60;0.60;;;;;;;-1.19;84.42;99098.84;5063952;28;20045;-75
2022/11/21 03:22:01;;;;;;;0.60;0.60;;;;;;;-1.16;84.19;99104.00;5066024;28;20029;-75
2022/11/21 03:24:26;;;;;;;0.60;0.60;;;;;;;-1.17;84.17;99092.97;5065952;28;20021;-74
2022/11/21 03:26:55;;;;;;;0.60;0.60;;;;;;;-1.14;84.14;99097.25;5063284;28;20080;-74
2022/11/21 03:29:20;;;;;;;0.60;0.60;;;;;;;-1.16;84.11;99088.72;5064416;28;20021;-75
2022/11/21 03:31:46;;;;;;;0.50;0.50;;;;;;;-1.13;84.10;99087.09;5065270;28;20096;-75
2022/11/21 03:34:11;;;;;;;0.70;0.70;;;;;;;-1.09;84.28;99098.22;5064245;28;20376;-75
2022/11/21 03:36:36;;;;;;;0.50;0.50;;;;;;;-1.14;83.98;99092.16;5064342;28;20082;-75
2022/11/21 03:39:02;;;;;;;0.60;0.60;;;;;;;-1.13;84.10;99086.22;5065423;28;20024;-74
2022/11/21 03:41:28;;;;;;;0.60;0.60;;;;;;;-1.14;84.16;99087.94;5064039;28;20025;-75
2022/11/21 03:43:54;;;;;;;0.60;0.60;;;;;;;-1.08;84.01;99094.81;5065568;28;20059;-74
2022/11/21 03:46:19;;;;;;;0.60;0.60;;;;;;;-1.06;84.01;99094.84;5065345;28;20025;-74
2022/11/21 03:48:45;;;;;;;0.60;0.60;;;;;;;-1.07;84.02;99077.84;5065508;28;20047;-74
2022/11/21 03:51:10;;;;;;;0.52;0.52;;;;;;;-0.97;84.09;99092.44;5063789;28;20027;-74
2022/11/21 03:53:35;;;;;;;0.55;0.55;;;;;;;-0.98;83.96;99090.75;5065381;28;20111;-75
2022/11/21 03:56:01;;;;;;;0.70;0.70;;;;;;;-1.02;83.94;99072.00;5065189;28;20029;-74
2022/11/21 03:58:26;;;;;;;0.60;0.60;;;;;;;-0.95;83.95;99087.38;5064087;28;20027;-74
2022/11/21 04:00:51;;;;;;;0.60;0.60;;;;;;;-0.93;83.71;99083.19;5065150;28;20017;-75
2022/11/21 04:03:17;;;;;;;0.70;0.70;;;;;;;-0.91;83.69;99087.47;5063708;28;20086;-74
2022/11/21 04:05:44;;;;;;;0.60;0.60;;;;;;;-0.88;83.89;99084.13;5065273;28;20024;-75
2022/11/21 04:08:09;;;;;;;0.60;0.60;;;;;;;-0.91;83.60;99071.34;5065458;28;20241;-74
2022/11/21 04:10:34;;;;;;;0.60;0.60;;;;;;;-0.92;83.60;99060.28;5065097;28;20029;-75
2022/11/21 04:13:00;;;;;;;0.60;0.60;;;;;;;-0.85;83.48;99061.25;5064945;28;20029;-74
2022/11/21 04:15:25;;;;;;;0.60;0.60;;;;;;;-0.81;83.72;99062.13;5065066;28;20044;-74
2022/11/21 04:17:50;;;;;;;0.50;0.50;;;;;;;-0.77;83.67;99064.75;5064208;28;20024;-74
2022/11/21 04:20:16;;;;;;;0.57;0.57;;;;;;;-0.74;83.44;99058.84;5068908;28;20048;-74
2022/11/21 04:22:41;;;;;;;0.60;0.60;;;;;;;-0.70;83.52;99065.72;5069259;28;20025;-74
2022/11/21 04:25:07;;;;;;;0.60;0.60;;;;;;;-0.75;83.46;99062.22;5069070;28;20025;-74
2022/11/21 04:27:32;;;;;;;0.60;0.60;;;;;;;-0.71;83.04;99068.22;5068968;28;20029;-74
2022/11/21 04:29:58;;;;;;;0.60;0.60;;;;;;;-0.79;82.93;99057.91;5068837;28;20047;-74
2022/11/21 04:32:23;;;;;;;0.70;0.70;;;;;;;-0.75;82.95;99060.53;5069096;28;20028;-74
2022/11/21 04:34:48;;;;;;;0.60;0.60;;;;;;;-0.79;82.99;99050.28;5067572;28;20060;-74
2022/11/21 04:37:14;;;;;;;0.63;0.63;;;;;;;-0.73;82.89;99060.56;5069071;28;20068;-74
2022/11/21 04:39:39;;;;;;;0.68;0.68;;;;;;;-0.78;82.67;99054.53;5068799;28;20028;-72
2022/11/21 04:42:04;;;;;;;0.60;0.60;;;;;;;-0.76;82.98;99056.28;5068587;28;20021;-72
2022/11/21 04:44:30;;;;;;;0.50;0.50;;;;;;;-0.77;82.92;99049.44;5067258;28;20036;-71
2022/11/21 04:46:55;;;;;;;0.60;0.60;;;;;;;-0.77;82.93;99048.63;5068690;28;20040;-74
2022/11/21 04:49:20;;;;;;;0.60;0.60;;;;;;;-0.75;82.87;99059.66;5068419;28;20024;-74
2022/11/21 04:51:46;;;;;;;0.60;0.60;;;;;;;-0.75;83.03;99047.78;5068613;28;20131;-73
2022/11/21 04:54:11;;;;;;;0.60;0.60;;;;;;;-0.71;83.17;99047.84;5068601;28;20033;-74
2022/11/21 04:56:37;;;;;;;0.60;0.60;;;;;;;-0.65;82.87;99037.75;5066846;28;20035;-74
2022/11/21 04:59:02;;;;;;;0.57;0.57;;;;;;;-0.60;82.88;99060.75;5068634;28;20021;-74
2022/11/21 05:01:27;;;;;;;0.60;0.60;;;;;;;-0.59;82.92;99040.38;5068350;28;20016;-72
2022/11/21 05:03:53;;;;;;;0.60;0.60;;;;;;;-0.61;82.69;99044.63;5068471;28;20020;-71
2022/11/21 05:06:18;;;;;;;0.60;0.60;;;;;;;-0.68;82.53;99038.56;5068397;28;20021;-73
2022/11/21 05:08:44;;;;;;;0.60;0.60;;;;;;;-0.66;82.51;99049.66;5068593;28;20035;-72
2022/11/21 05:13:53;;;;;;;0.60;0.60;;;;;;;-0.75;82.26;99035.06;5068280;28;20056;-72
2022/11/21 05:16:19;;;;;;;0.60;0.60;;;;;;;-0.84;82.32;99031.50;5066954;28;20021;-72
2022/11/21 05:18:44;;;;;;;0.50;0.50;;;;;;;-0.81;82.30;99045.16;5068222;28;20025;-71
2022/11/21 05:21:09;;;;;;;0.63;0.63;;;;;;;-0.87;82.33;99032.31;5067879;28;20063;-71
2022/11/21 05:23:35;;;;;;;0.60;0.60;;;;;;;-0.88;82.35;99036.53;5068083;28;20020;-75
2022/11/21 05:26:00;;;;;;;0.63;0.63;;;;;;;-0.84;82.36;99044.25;5067852;28;20033;-71
2022/11/21 05:28:26;;;;;;;0.60;0.60;;;;;;;-0.93;82.49;99033.09;5068271;28;20055;-73
2022/11/21 05:30:51;;;;;;;0.60;0.60;;;;;;;-0.90;82.40;99037.38;5065344;28;20013;-75
2022/11/21 05:33:17;;;;;;;0.55;0.55;;;;;;;-0.87;82.58;99039.97;5067995;28;20117;-72
2022/11/21 05:35:42;;;;;;;0.60;0.60;;;;;;;-0.93;82.66;99032.22;5067985;28;20028;-73
2022/11/21 05:38:07;;;;;;;0.50;0.50;;;;;;;-0.91;82.61;99035.66;5067253;28;20064;-74
2022/11/21 05:40:33;;;;;;;0.60;0.60;;;;;;;-0.94;82.66;99027.97;5067588;28;20033;-75
2022/11/21 05:45:42;;;;;;;0.60;0.60;;;;;;;-0.91;82.52;99035.66;5067768;28;20054;-74
2022/11/21 05:48:07;;;;;;;0.60;0.60;;;;;;;-0.89;82.50;99028.88;5068271;28;20107;-74
2022/11/21 05:50:34;;;;;;;0.60;0.60;;;;;;;-0.86;82.51;99035.72;5067226;28;20044;-75
2022/11/21 05:53:02;;;;;;;0.50;0.50;;;;;;;-0.88;82.53;99034.00;5067562;28;20028;-73
2022/11/21 05:55:27;;;;;;;0.60;0.60;;;;;;;-0.88;82.38;99025.50;5066182;28;20039;-74
2022/11/21 05:57:53;;;;;;;0.60;0.60;;;;;;;-0.84;82.27;99034.91;5066018;28;20025;-74
2022/11/21 06:00:18;;;;;;;0.60;0.60;;;;;;;-0.81;82.22;99034.97;5067214;28;20029;-75
2022/11/21 06:05:28;;;;;;;0.98;0.98;;;;;;;-0.92;81.94;99041.56;5067710;28;20105;-74
2022/11/21 06:07:54;;;;;;;0.60;0.60;;;;;;;-1.00;82.03;99032.13;5067662;28;20088;-74
2022/11/21 06:10:19;;;;;;;0.60;0.60;;;;;;;-1.00;82.29;99039.78;5067487;28;20025;-75
2022/11/21 06:12:44;;;;;;;0.60;0.60;;;;;;;-1.00;82.29;99039.78;5067401;28;20082;-74
2022/11/21 06:15:10;;;;;;;0.60;0.60;;;;;;;-1.01;82.08;99043.13;5067644;28;20054;-74
2022/11/21 06:17:35;;;;;;;0.55;0.55;;;;;;;-0.95;82.21;99050.03;5066431;28;20020;-74
2022/11/21 06:20:00;;;;;;;0.60;0.60;;;;;;;-1.04;82.14;99037.97;5067179;28;20113;-75
2022/11/21 06:22:26;;;;;;;0.60;0.60;;;;;;;-1.02;81.98;99038.00;5067132;28;20083;-74
2022/11/21 06:24:51;;;;;;;0.60;0.60;;;;;;;-0.93;82.10;99052.59;5066655;28;20025;-74
2022/11/21 06:27:18;;;;;;;0.60;0.60;;;;;;;-0.96;82.18;99045.78;5066434;28;20501;-74
2022/11/21 06:29:43;;;;;;;0.57;0.57;;;;;;;-0.86;82.25;99062.06;5066959;28;20097;-74
2022/11/21 06:32:08;;;;;;;0.60;0.60;;;;;;;-0.83;82.07;99053.63;5065403;28;20503;-74
2022/11/21 06:34:34;;;;;;;0.70;0.70;;;;;;;-0.83;81.99;99049.34;5067008;28;20100;-75
2022/11/21 06:36:59;;;;;;;0.60;0.60;;;;;;;-0.86;81.74;99056.13;5065508;28;20052;-74
2022/11/21 06:39:24;;;;;;;0.60;0.60;;;;;;;-0.88;82.06;99051.84;5066696;28;20051;-74
2022/11/21 06:41:50;;;;;;;0.60;0.60;;;;;;;-0.88;82.13;99053.53;5066255;28;20028;-74
2022/11/21 06:44:19;;;;;;;0.70;0.70;;;;;;;-0.86;82.12;99059.50;5066694;28;20020;-74
2022/11/21 06:46:45;;;;;;;0.60;0.60;;;;;;;-0.83;82.07;99068.91;5048756;28;20025;-74
2022/11/21 06:49:10;;;;;;;0.60;0.60;;;;;;;-0.86;81.91;99069.69;5066562;28;20047;-76
2022/11/21 06:51:36;;;;;;;0.60;0.60;;;;;;;-0.86;82.20;99073.97;5066123;28;20025;-75
2022/11/21 06:54:01;;;;;;;0.60;0.60;;;;;;;-0.92;81.91;99069.59;5064960;28;20025;-74
2022/11/21 06:56:29;;;;;;;0.60;0.60;;;;;;;-0.94;81.78;99081.47;5066268;28;20029;-75
2022/11/21 06:58:55;;;;;;;0.60;0.60;;;;;;;-0.95;82.08;99075.50;5048049;28;20017;-75
2022/11/21 07:01:21;;;;;;;0.65;0.65;;;;;;;-0.97;82.23;99086.50;5064840;28;20017;-75
2022/11/21 07:03:46;;;;;;;0.60;0.60;;;;;;;-1.01;82.22;99083.88;5066417;28;20090;-74
2022/11/21 07:06:12;;;;;;;0.50;0.50;;;;;;;-1.07;82.35;99071.06;5066178;28;20162;-75
2022/11/21 07:08:39;;;;;;;0.50;0.50;;;;;;;-1.06;82.31;99080.44;5066143;28;20033;-75
2022/11/21 07:11:10;;;;;;;0.60;0.60;;;;;;;-1.07;82.63;99088.03;5066000;28;20127;-74
2022/11/21 07:13:36;;;;;;;0.70;0.70;;;;;;;-1.06;82.61;99089.75;5066133;28;20044;-75
2022/11/21 07:16:04;;;;;;;0.60;0.60;;;;;;;-1.04;82.61;99101.66;5066193;28;20053;-74
2022/11/21 07:18:29;;;;;;;0.60;0.60;;;;;;;-1.05;82.86;99099.97;5047939;28;20029;-76
2022/11/21 07:21:03;;;;;;;0.60;0.60;;;;;;;-1.05;82.71;99105.06;5065707;28;20040;-76
2022/11/21 07:23:29;;;;;;;0.70;0.70;;;;;;;-1.02;82.94;99106.78;5066064;28;20542;-75
2022/11/21 07:26:01;;;;;;;0.60;0.60;;;;;;;-1.00;82.87;99115.34;5065780;28;20084;-74
2022/11/21 07:28:28;;;;;;;0.65;0.65;;;;;;;-0.98;82.82;99112.81;5063102;28;20021;-75
2022/11/21 07:30:59;;;;;;;0.60;0.60;;;;;;;-0.98;82.80;99113.69;5065313;28;20024;-76
2022/11/21 07:33:24;;;;;;;0.70;0.70;;;;;;;-0.95;82.96;99116.28;5047932;28;20025;-74
2022/11/21 07:35:50;;;;;;;0.70;0.70;;;;;;;-0.90;82.54;99118.91;5065740;28;20052;-75
2022/11/21 07:38:15;;;;;;;0.55;0.55;;;;;;;-0.94;82.71;99123.09;5066723;28;20041;-74
2022/11/21 07:40:40;;;;;;;0.52;0.52;;;;;;;-0.94;81.92;99112.88;5065967;28;20037;-75
2022/11/21 07:43:06;;;;;;;0.60;0.60;;;;;;;-0.96;81.91;99116.25;5065652;28;20028;-75
2022/11/21 07:45:32;;;;;;;0.50;0.50;;;;;;;-0.93;81.85;99112.06;5065687;28;20049;-75
2022/11/21 07:48:03;;;;;;;0.60;0.60;;;;;;;-1.04;81.44;99109.31;5063788;28;20051;-75
2022/11/21 07:50:29;;;;;;;0.60;0.60;;;;;;;-1.11;81.66;99112.59;5065432;28;20025;-74
2022/11/21 07:53:03;;;;;;;0.60;0.60;;;;;;;-1.01;81.66;99122.09;5063609;28;20025;-75
2022/11/21 07:55:29;;;;;;;0.68;0.68;;;;;;;-1.01;81.59;99117.00;5064232;28;20067;-75
2022/11/21 07:58:03;;;;;;;0.60;0.60;;;;;;;-1.06;81.54;99122.88;5063923;28;20021;-75
2022/11/21 08:00:30;;;;;;;0.70;0.70;;;;;;;-1.02;81.57;99124.63;5063869;28;20469;-75
2022/11/21 08:02:55;;;;;;;0.52;0.52;;;;;;;-0.98;81.85;99128.97;5065804;28;20124;-76
2022/11/21 08:05:20;;;;;;;0.55;0.55;;;;;;;-0.99;81.91;99137.41;5065455;28;20468;-76
2022/11/21 08:07:46;;;;;;;0.60;0.60;;;;;;;-0.99;81.91;99137.41;5064059;28;20025;-74
2022/11/21 08:10:12;;;;;;;0.65;0.65;;;;;;;-0.92;81.90;99135.84;5065327;28;20090;-74
2022/11/21 08:12:38;;;;;;;0.50;0.50;;;;;;;-1.01;81.98;99141.66;5064939;28;20025;-74
2022/11/21 08:15:05;;;;;;;0.60;0.60;;;;;;;-0.96;82.02;99139.19;5065427;28;20028;-76
2022/11/21 08:17:31;;;;;;;0.60;0.60;;;;;;;-1.02;82.17;99142.47;5065148;28;20484;-75
2022/11/21 08:19:57;;;;;;;0.60;0.60;;;;;;;-1.03;82.27;99144.16;5063604;28;20041;-76
2022/11/21 08:22:23;;;;;;;2.05;1.95;;;;;;;-1.03;82.50;99131.44;5065302;28;20024;-75
2022/11/21 08:24:48;;;;;;;0.70;0.70;;;;;;;-0.98;82.73;99141.69;5064218;28;20025;-74
2022/11/21 08:27:15;;;;;;;0.60;0.60;;;;;;;-0.87;82.51;99147.00;5063807;28;20021;-75
2022/11/21 08:29:41;;;;;;;0.60;0.60;;;;;;;-0.96;82.75;99142.59;5063321;28;20067;-74
2022/11/21 08:32:06;;;;;;;0.60;0.60;;;;;;;-0.90;82.61;99145.25;5065269;28;20535;-75
2022/11/21 08:34:31;;;;;;;0.70;0.70;;;;;;;-0.88;82.60;99142.72;5065337;28;20025;-76
2022/11/21 08:36:58;;;;;;;0.63;0.63;;;;;;;-0.94;82.69;99155.38;5063796;28;20044;-75
2022/11/21 08:39:24;;;;;;;0.60;0.60;;;;;;;-0.97;82.75;99161.25;5063678;28;20061;-75
2022/11/21 08:42:02;;;;;;;0.60;0.60;;;;;;;-0.97;82.95;99157.81;5064759;28;20074;-75
2022/11/21 08:44:31;;;;;;;1.38;1.38;;;;;;;-1.07;83.23;99137.28;5064840;28;20172;-74
2022/11/21 08:46:57;;;;;;;0.60;0.60;;;;;;;-1.02;83.31;99153.53;5063378;28;20025;-74
2022/11/21 08:49:23;;;;;;;0.60;0.60;;;;;;;-1.01;83.22;99147.59;5063684;28;20102;-74
2022/11/21 08:51:48;;;;;;;0.60;0.60;;;;;;;-1.02;83.38;99145.88;5064803;28;20032;-75
2022/11/21 08:54:18;;;;;;;0.60;0.60;;;;;;;-0.91;83.13;99152.88;5065170;28;20029;-75
2022/11/21 08:56:44;;;;;;;0.60;0.60;;;;;;;-0.94;83.36;99163.00;5063215;28;20016;-75
2022/11/21 08:59:10;;;;;;;0.60;0.60;;;;;;;-1.01;83.49;99162.03;5064945;28;20028;-74
2022/11/21 09:01:44;;;;;;;0.60;0.60;;;;;;;-1.00;83.55;99158.66;5064915;28;20057;-75
2022/11/21 09:04:10;;;;;;;0.60;0.60;;;;;;;-1.01;83.87;99165.41;5064955;28;20049;-74
2022/11/21 09:06:35;;;;;;;0.60;0.60;;;;;;;-0.88;83.57;99174.16;5067424;28;20028;-74
2022/11/21 09:09:01;;;;;;;0.60;0.60;;;;;;;-0.88;83.45;99170.75;5067457;28;20032;-75
2022/11/21 09:11:27;;;;;;;0.60;0.60;;;;;;;-0.97;83.94;99170.56;5068481;28;20417;-75
2022/11/21 09:19:21;;;;;;;0.70;0.70;;;;;;;-0.93;83.73;99173.22;5068202;28;20040;-74
2022/11/21 09:21:51;;;;;;;0.60;0.60;;;;;;;-0.89;84.09;99181.75;5068223;28;20423;-74
2022/11/21 09:24:16;;;;;;;0.60;0.60;;;;;;;-0.87;84.42;99177.56;5068398;28;20029;-75
2022/11/21 09:26:42;;;;;;;0.52;0.52;;;;;;;-0.79;84.18;99183.66;5066982;28;20039;-75
2022/11/21 09:29:09;;;;;;;0.52;0.52;;;;;;;-0.71;83.81;99180.38;5068291;28;20115;-74
2022/11/21 09:31:36;;;;;;;0.70;0.70;;;;;;;-0.67;83.80;99182.19;5066708;28;20021;-74
2022/11/21 09:34:01;;;;;;;0.60;0.60;;;;;;;-0.75;83.88;99182.88;5068272;28;20017;-75
2022/11/21 09:36:27;;;;;;;0.60;0.60;;;;;;;-0.63;83.49;99195.00;5068158;28;20032;-75
2022/11/21 09:38:52;;;;;;;0.60;0.60;;;;;;;-0.66;83.01;99186.44;5067908;28;20025;-75
2022/11/21 09:41:52;;;;;;;0.60;0.60;;;;;;;-0.79;83.70;99195.53;5066233;28;20060;-75
2022/11/21 09:44:57;;;;;;;0.70;0.70;;;;;;;-0.84;83.99;99198.00;5067752;28;20140;-75
2022/11/21 09:47:25;;;;;;;0.60;0.60;;;;;;;-0.54;82.15;99204.47;5066587;28;20469;-74
2022/11/21 09:50:27;;;;;;;0.80;0.80;;;;;;;-0.70;82.51;99200.81;5067849;28;20048;-75
2022/11/21 09:53:17;;;;;;;0.80;0.80;;;;;;;-0.87;83.35;99213.25;5035486;28;20037;-76
2022/11/21 09:55:47;;;;;;;0.60;0.60;;;;;;;-0.91;83.49;99204.66;5067698;28;20032;-74
2022/11/21 09:58:44;;;;;;;0.60;0.60;;;;;;;-0.95;83.92;99207.13;5066145;28;20028;-75
2022/11/21 10:01:11;;;;;;;0.60;0.60;;;;;;;-0.84;83.55;99199.69;5055442;28;20115;-75
2022/11/21 10:03:42;;;;;;;0.70;0.70;;;;;;;-0.93;83.83;99200.38;5067379;28;20048;-75
2022/11/21 10:06:21;;;;;;;0.60;0.60;;;;;;;-0.90;84.04;99213.19;5067474;28;20037;-75
2022/11/21 10:09:04;;;;;;;0.88;0.88;;;;;;;-0.82;84.17;99210.78;5067659;28;20088;-75
2022/11/21 10:14:47;;;;;;;0.60;0.60;;;;;;;-0.79;84.12;99221.91;5067416;28;20032;-75
2022/11/21 10:17:32;;;;;;;0.50;0.50;;;;;;;-0.72;83.99;99211.81;5067009;28;20028;-75
2022/11/21 10:20:18;;;;;;;0.60;0.60;;;;;;;-0.52;82.93;99227.47;5054635;28;20037;-75
2022/11/21 10:23:20;;;;;;;0.52;0.52;;;;;;;-0.64;82.29;99205.16;5067221;28;20098;-75
2022/11/21 10:26:01;;;;;;;0.80;0.80;;;;;;;-0.56;82.11;99205.31;5064662;28;20060;-76
2022/11/21 10:28:47;;;;;;;0.63;0.63;;;;;;;-0.60;82.14;99211.16;5065911;28;20113;-75
2022/11/21 10:31:14;;;;;;;0.60;0.60;;;;;;;-0.63;82.15;99230.69;5064926;28;20485;-74
2022/11/21 10:33:40;;;;;;;0.70;0.70;;;;;;;-0.66;81.88;99220.44;5066935;28;20048;-74
2022/11/21 10:36:32;;;;;;;0.60;0.60;;;;;;;-0.60;81.95;99214.56;5066702;28;20465;-75
2022/11/21 10:39:02;;;;;;;0.80;0.80;;;;;;;-0.78;82.46;99218.50;5066895;28;20101;-75
2022/11/21 10:41:45;;;;;;;0.60;0.60;;;;;;;-0.59;81.90;99212.91;5066422;28;20025;-75
2022/11/21 10:47:26;;;;;;;0.60;0.60;;;;;;;-0.74;81.84;99214.34;5066923;28;20051;-75
2022/11/21 10:49:58;;;;;;;0.60;0.60;;;;;;;-0.48;80.66;99213.94;5066580;28;20029;-75
2022/11/21 10:52:24;;;;;;;;;;;;;;;-0.66;81.37;99219.56;5065644;28;20025;-74
2022/11/21 10:55:02;;;;;;;0.60;0.60;;;;;;;-0.72;81.90;99219.47;5066573;28;19908;-75
2022/11/21 10:57:30;;;;;;;0.55;0.55;;;;;;;-0.61;81.25;99219.66;5066344;28;20044;-75
2022/11/21 11:00:01;;;;;;;0.60;0.60;;;;;;;-0.69;81.70;99229.72;5066478;28;20044;-75
2022/11/21 11:02:27;;;;;;;0.60;0.60;;;;;;;-0.72;81.22;99225.44;5065371;28;20056;-76
2022/11/21 11:05:19;;;;;;;0.60;0.60;;;;;;;-0.74;80.72;99219.44;5065474;28;20025;-75
2022/11/21 11:08:03;;;;;;;0.60;0.60;;;;;;;-0.85;80.97;99226.88;5066448;28;20020;-75
2022/11/21 11:10:30;;;;;;;0.60;0.60;;;;;;;-0.94;81.33;99226.72;5066153;28;20055;-75
2022/11/21 11:15:59;;;;;;;0.70;0.70;;;;;;;-0.84;80.68;99215.84;5067249;28;20036;-74
2022/11/21 11:18:25;;;;;;;0.60;0.60;;;;;;;-0.88;80.17;99230.22;5067388;28;20116;-74
2022/11/21 11:20:50;;;;;;;0.63;0.63;;;;;;;-0.88;80.05;99226.81;5065095;28;20136;-75
2022/11/21 11:23:23;;;;;;;0.60;0.60;;;;;;;-1.01;80.50;99233.38;5066627;28;20056;-75
2022/11/21 11:25:51;;;;;;;0.70;0.70;;;;;;;-1.08;80.80;99234.06;5065694;28;20058;-75
2022/11/21 11:28:22;;;;;;;0.50;0.50;;;;;;;-1.05;81.05;99231.56;5063820;28;20504;-75
2022/11/21 11:30:49;;;;;;;0.52;0.52;;;;;;;-0.95;80.61;99243.69;5063298;28;20096;-76
2022/11/21 11:33:53;;;;;;;0.60;0.60;;;;;;;-1.03;81.63;99235.88;5065918;28;20021;-75
2022/11/21 11:36:44;;;;;;;0.60;0.60;;;;;;;-0.98;81.79;99237.66;5004034;28;20088;-75
2022/11/21 11:39:20;;;;;;;0.60;0.60;;;;;;;-0.91;81.79;99237.78;5004015;28;20022;-75
2022/11/21 11:47:48;;;;;;;0.60;0.60;;;;;;;-0.84;81.42;99232.81;5004002;28;20042;-75
2022/11/21 11:50:21;;;;;;;0.70;0.70;;;;;;;-0.90;81.54;99215.72;5003919;28;20126;-74
2022/11/21 11:53:05;;;;;;;1.25;1.25;;;;;;;-0.85;81.28;99229.44;5003886;28;20138;-74
2022/11/21 11:55:44;;;;;;;0.60;0.60;;;;;;;-0.90;81.26;99234.44;5003854;28;20029;-74
2022/11/21 11:58:22;;;;;;;0.63;0.63;;;;;;;-0.94;81.27;99239.44;5003694;28;20027;-75
2022/11/21 12:00:56;;;;;;;0.50;0.50;;;;;;;-1.05;81.08;99229.03;5003759;28;20038;-75
2022/11/21 12:03:39;;;;;;;0.70;0.70;;;;;;;-1.00;81.06;99233.41;5003740;28;20129;-74
2022/11/21 12:06:16;;;;;;;0.60;0.60;;;;;;;-1.00;80.76;99232.53;5009981;28;20022;-76
2022/11/21 12:08:56;;;;;;;0.60;0.60;;;;;;;-0.96;80.90;99236.88;5065239;28;20025;-74
2022/11/21 12:17:32;;;;;;;0.57;0.57;;;;;;;-0.94;78.72;99244.53;5065610;28;20055;-75